2005 NESAT (2005148N06156)


On this page: IBTrACS data - Map and Plots - Positions - Intensities - Original source data

Summary

Start May 27
End Jun 11
Basin WP
LMI 125 kt
Sources jtwc_wp
tokyo
cma
hko
In WMO? Yes
Previous storm 2005 ADRIAN (EP)
Previous in basin 2005 SONCA (WP)
Concurrent storms 2005 NESAT (WP)
2005 ARLENE (NA)
Next in basin Missing
Next storm 2005 ARLENE (NA)

top of page IBTrACS Data: File Access

top of page HURSAT Data: File Access

Image of storm

top of page Plots:

Map of storm track will not appear if FTP is down
Time series of cyclone Maximum Sustained Wind will not appear if FTP is down
Time series of cyclone Minimum Central Pressure will not appear if FTP is down

top of page Track Data:Position

jtwc_wp tokyo cma hko
Date Lat Lon Lat Lon Lat Lon Lat Lon
2005-05-27 12:00:00 5.7 156.3
2005-05-27 18:00:00 5.6 155.7
2005-05-28 00:00:00 5.6 155.0
2005-05-28 06:00:00 5.8 154.0
2005-05-28 12:00:00 6.3 153.0
2005-05-28 18:00:00 7.0 152.1
2005-05-29 00:00:00 7.5 151.2
2005-05-29 06:00:00 8.0 150.4
2005-05-29 12:00:00 8.5 149.6
2005-05-29 18:00:00 8.8 148.8
2005-05-30 00:00:00 9.1 148.1 8.7 148.4 8.7 148.4
2005-05-30 06:00:00 9.3 147.6 9.1 147.3 9.1 147.3
2005-05-30 12:00:00 9.5 147.0 9.3 146.6 9.3 146.6
2005-05-30 18:00:00 9.7 146.5 9.5 146.1 9.5 146.1 9.8 146.0
2005-05-31 00:00:00 9.9 146.0 9.7 145.6 9.7 145.6 9.9 145.7
2005-05-31 06:00:00 10.2 145.6 9.9 145.0 9.9 145.0 10.0 145.4
2005-05-31 12:00:00 10.4 144.9 10.3 144.4 10.3 144.4 10.3 144.9
2005-05-31 18:00:00 10.6 144.0 10.5 143.7 10.5 143.7 10.4 144.4
2005-06-01 00:00:00 10.6 142.9 10.8 142.8 10.8 142.8 10.5 143.1
2005-06-01 06:00:00 10.7 141.6 10.7 141.6 10.7 141.6 10.7 141.6
2005-06-01 12:00:00 10.8 140.4 10.6 140.5 10.7 140.5 10.7 140.5
2005-06-01 18:00:00 10.9 139.4 10.7 139.6 10.9 139.6 10.8 139.5
2005-06-02 00:00:00 11.1 138.4 11.2 138.5 11.2 138.5 11.2 138.5
2005-06-02 06:00:00 11.4 137.4 11.5 137.4 11.4 137.4 11.4 137.4
2005-06-02 12:00:00 11.8 136.3 11.7 136.3 11.7 136.3 11.7 136.4
jtwc_wp tokyo cma hko
2005-06-02 18:00:00 12.0 135.3 12.1 135.4 12.1 135.4 12.0 135.4
2005-06-03 00:00:00 12.4 134.4 12.3 134.4 12.3 134.4 12.2 134.4
2005-06-03 06:00:00 13.1 133.6 13.0 133.7 12.9 133.7 12.9 133.7
2005-06-03 12:00:00 13.7 132.8 13.7 132.6 13.7 132.6 13.7 132.7
2005-06-03 18:00:00 14.1 132.0 14.1 131.8 14.1 131.8 14.1 131.8
2005-06-04 00:00:00 14.5 131.3 14.6 131.4 14.6 131.4 14.4 131.4
2005-06-04 06:00:00 15.1 130.8 15.2 131.0 15.1 131.0 15.1 131.0
2005-06-04 12:00:00 15.9 130.6 15.7 130.6 15.7 130.6 15.8 130.6
2005-06-04 18:00:00 16.7 130.5 16.4 130.4 16.4 130.4 16.4 130.4
2005-06-05 00:00:00 17.6 130.6 17.3 130.4 17.3 130.4 17.3 130.5
2005-06-05 06:00:00 18.3 130.9 18.1 130.9 18.1 130.7 18.1 130.7
2005-06-05 12:00:00 19.0 131.3 18.9 131.3 18.9 131.3 18.8 131.3
2005-06-05 18:00:00 19.8 132.0 19.6 132.0 19.7 132.0 19.7 132.0
2005-06-06 00:00:00 20.6 132.6 20.6 132.5 20.6 132.5 20.5 132.6
2005-06-06 06:00:00 21.2 133.4 21.3 133.4 21.2 133.4 21.2 133.4
2005-06-06 12:00:00 21.8 133.9 21.9 133.8 21.9 133.8 21.8 133.9
2005-06-06 18:00:00 22.3 134.2 22.3 134.1 22.3 134.1 22.3 134.2
2005-06-07 00:00:00 22.9 134.2 22.9 134.2 22.9 134.2 22.9 134.3
2005-06-07 06:00:00 23.4 134.0 23.5 134.1 23.5 134.1 23.4 134.2
2005-06-07 12:00:00 23.9 133.9 23.8 133.8 23.8 133.8 23.8 133.8
2005-06-07 18:00:00 24.4 133.7 24.4 133.7 24.4 133.7 24.4 133.8
2005-06-08 00:00:00 25.0 133.9 25.0 133.9 25.0 133.9 24.9 133.9
2005-06-08 06:00:00 25.6 134.3 25.6 134.3 25.6 134.3 25.5 134.3
2005-06-08 12:00:00 26.1 135.0 26.2 135.2 26.1 135.3 26.1 135.3
jtwc_wp tokyo cma hko
2005-06-08 18:00:00 26.7 135.7 26.9 135.9 26.9 135.9 26.7 136.0
2005-06-09 00:00:00 27.4 136.5 27.7 136.5 27.7 136.5 27.4 136.7
2005-06-09 06:00:00 28.2 137.1 28.5 137.1 28.5 137.1 28.4 137.2
2005-06-09 12:00:00 29.0 137.7 29.1 137.7 29.1 137.7 29.2 137.8
2005-06-09 18:00:00 29.8 138.3 29.8 138.2 29.7 138.2 29.7 138.3
2005-06-10 00:00:00 30.6 139.0 30.4 138.7 30.4 138.8 30.5 138.8
2005-06-10 06:00:00 31.4 140.0 31.1 139.4 31.0 139.4 31.0 139.5
2005-06-10 12:00:00 32.5 141.4 31.9 141.1 31.9 141.1 31.5 141.1
2005-06-10 18:00:00 33.7 143.0 32.7 142.4 32.7 142.4 32.5 142.1
2005-06-11 00:00:00 34.3 145.3 34.6 145.1 34.6 145.1 34.2 144.5
2005-06-11 06:00:00 36.6 147.4 36.6 147.4

top of pageTrack Data:Intensity

jtwc_wp tokyo cma hko
Date Wind Pres Wind Pres Wind Pres Wind Pres
2005-05-27 12:00:00 15. 1006.
2005-05-27 18:00:00 15. 1006.
2005-05-28 00:00:00 15. 1006.
2005-05-28 06:00:00 15. 1006.
2005-05-28 12:00:00 15. 1006.
2005-05-28 18:00:00 15. 1006.
2005-05-29 00:00:00 20. 1004.
2005-05-29 06:00:00 20. 1004.
2005-05-29 12:00:00 20. 1004.
2005-05-29 18:00:00 20. 1004.
2005-05-30 00:00:00 25. 1002. 1008. 23. 1008.
2005-05-30 06:00:00 30. 1000. 1006. 23. 1006.
2005-05-30 12:00:00 30. 1000. 1006. 23. 1006.
2005-05-30 18:00:00 35. 997. 1004. 29. 1004. 25. 1002.
2005-05-31 00:00:00 35. 997. 1004. 29. 1004. 25. 1002.
2005-05-31 06:00:00 35. 997. 1002. 29. 1002. 30. 1000.
2005-05-31 12:00:00 35. 997. 35. 1000. 35. 1000. 30. 1000.
2005-05-31 18:00:00 40. 994. 45. 994. 45. 995. 35. 996.
2005-06-01 00:00:00 50. 987. 50. 985. 49. 990. 40. 992.
2005-06-01 06:00:00 65. 976. 60. 975. 54. 985. 45. 988.
2005-06-01 12:00:00 75. 967. 70. 965. 64. 975. 50. 984.
2005-06-01 18:00:00 90. 954. 75. 955. 68. 970. 60. 975.
2005-06-02 00:00:00 110. 933. 80. 945. 78. 960. 70. 965.
2005-06-02 06:00:00 115. 927. 85. 940. 78. 960. 80. 955.
2005-06-02 12:00:00 115. 927. 90. 935. 87. 950. 85. 950.
jtwc_wp tokyo cma hko
2005-06-02 18:00:00 110. 933. 90. 935. 87. 950. 85. 950.
2005-06-03 00:00:00 105. 938. 90. 935. 87. 950. 85. 950.
2005-06-03 06:00:00 105. 938. 90. 935. 87. 950. 85. 950.
2005-06-03 12:00:00 105. 938. 90. 935. 87. 950. 90. 945.
2005-06-03 18:00:00 125. 916. 90. 935. 87. 950. 95. 940.
2005-06-04 00:00:00 125. 916. 95. 930. 97. 940. 100. 935.
2005-06-04 06:00:00 125. 916. 95. 930. 97. 940. 100. 935.
2005-06-04 12:00:00 125. 916. 95. 930. 97. 940. 100. 935.
2005-06-04 18:00:00 115. 927. 90. 940. 87. 950. 95. 940.
2005-06-05 00:00:00 105. 938. 85. 945. 87. 950. 90. 945.
2005-06-05 06:00:00 100. 944. 85. 945. 87. 950. 85. 950.
2005-06-05 12:00:00 90. 954. 80. 950. 78. 960. 85. 950.
2005-06-05 18:00:00 95. 949. 80. 955. 78. 960. 85. 950.
2005-06-06 00:00:00 105. 938. 80. 955. 78. 960. 85. 950.
2005-06-06 06:00:00 115. 927. 85. 945. 87. 950. 90. 945.
2005-06-06 12:00:00 115. 927. 85. 945. 87. 950. 90. 945.
2005-06-06 18:00:00 115. 927. 85. 945. 87. 950. 90. 945.
2005-06-07 00:00:00 105. 938. 80. 945. 78. 960. 85. 950.
2005-06-07 06:00:00 100. 944. 80. 950. 78. 960. 80. 955.
2005-06-07 12:00:00 90. 954. 80. 955. 78. 960. 80. 955.
2005-06-07 18:00:00 90. 954. 80. 955. 78. 960. 80. 955.
2005-06-08 00:00:00 85. 958. 75. 955. 78. 960. 80. 955.
2005-06-08 06:00:00 80. 963. 70. 960. 68. 970. 75. 960.
2005-06-08 12:00:00 70. 972. 65. 970. 68. 970. 70. 965.
jtwc_wp tokyo cma hko
2005-06-08 18:00:00 70. 972. 60. 970. 64. 975. 65. 970.
2005-06-09 00:00:00 65. 976. 60. 975. 58. 980. 60. 975.
2005-06-09 06:00:00 60. 980. 60. 975. 58. 980. 55. 980.
2005-06-09 12:00:00 55. 984. 55. 980. 54. 985. 50. 984.
2005-06-09 18:00:00 50. 987. 50. 985. 49. 990. 50. 984.
2005-06-10 00:00:00 35. 997. 45. 990. 45. 990. 45. 988.
2005-06-10 06:00:00 35. 997. 45. 990. 45. 990. 40. 992.
2005-06-10 12:00:00 30. 1000. 45. 992. 39. 995. 40. 992.
2005-06-10 18:00:00 30. 1000. 40. 994. 39. 995. 35. 996.
2005-06-11 00:00:00 25. 1002. 994. 29. 998. 35. 996.
2005-06-11 06:00:00 996. 29. 998.

top of page Links to source data

Source Source file Format
jtwc_wp bwp042005.txt ATCF
tokyo bst_all.txt:Line=54564:NESAT:504 JMA text table
cma CH2005BST.txt:Storm=4:Nesat CMA text table
hko tc-besttrack-data.txt:Line=31302:NESAT HKO Text table